createdAt,value
2019-04-26T00:01:10.268Z,97681.92
2019-04-26T00:03:40.598Z,97677.56
2019-04-26T00:06:10.786Z,97679.85
2019-04-26T00:08:39.975Z,97670.20
2019-04-26T00:11:25.610Z,97673.33
2019-04-26T00:14:14.212Z,97675.25
2019-04-26T00:16:44.501Z,97677.72
2019-04-26T00:19:13.865Z,97677.31
2019-04-26T00:21:43.026Z,97673.71
2019-04-26T00:24:13.116Z,97673.64
2019-04-26T00:26:41.801Z,97672.20
2019-04-26T00:29:11.386Z,97674.41
2019-04-26T00:31:40.122Z,97669.62
2019-04-26T00:34:16.170Z,97664.96
2019-04-26T00:36:44.788Z,97668.66
2019-04-26T00:39:14.339Z,97667.73
2019-04-26T00:41:43.657Z,97665.30
2019-04-26T00:44:13.784Z,97664.94
2019-04-26T00:46:46.008Z,97663.94
2019-04-26T00:49:17.050Z,97660.16
2019-04-26T00:51:48.188Z,97661.18
2019-04-26T00:54:18.249Z,97662.73
2019-04-26T00:56:47.311Z,97655.05
2019-04-26T00:59:17.016Z,97657.72
2019-04-26T01:01:47.318Z,97660.67
2019-04-26T01:04:17.046Z,97666.14
2019-04-26T01:06:47.787Z,97667.73
2019-04-26T01:09:17.370Z,97664.31
2019-04-26T01:11:46.115Z,97663.45
2019-04-26T01:14:15.541Z,97666.55
2019-04-26T01:16:47.050Z,97662.02
2019-04-26T01:19:18.489Z,97670.81
2019-04-26T01:21:50.357Z,97674.45
2019-04-26T01:24:21.186Z,97673.83
2019-04-26T01:26:52.208Z,97670.20
2019-04-26T01:29:23.784Z,97670.77
2019-04-26T01:31:58.076Z,97664.86
2019-04-26T01:34:28.271Z,97671.31
2019-04-26T01:37:00.870Z,97672.24
2019-04-26T01:39:29.686Z,97666.86
2019-04-26T01:42:00.413Z,97673.55
2019-04-26T01:44:33.635Z,97664.62
2019-04-26T01:47:02.545Z,97663.56
2019-04-26T01:49:32.494Z,97660.20
2019-04-26T01:52:07.973Z,97667.67
2019-04-26T01:54:42.468Z,97659.69
2019-04-26T01:57:13.845Z,97660.95
2019-04-26T01:59:46.829Z,97660.47
2019-04-26T02:02:27.672Z,97661.64
2019-04-26T02:04:59.093Z,97664.28
2019-04-26T02:07:40.749Z,97663.66
2019-04-26T02:10:15.166Z,97658.59
2019-04-26T02:12:48.887Z,97656.94
2019-04-26T02:15:19.310Z,97657.28
2019-04-26T02:17:50.935Z,97653.07
2019-04-26T02:20:45.250Z,97660.48
2019-04-26T02:23:30.819Z,97661.40
2019-04-26T02:26:01.130Z,97659.81
2019-04-26T02:28:31.060Z,97657.70
2019-04-26T02:31:00.201Z,97657.38
2019-04-26T02:33:29.694Z,97649.88
2019-04-26T02:35:59.535Z,97651.02
2019-04-26T02:38:30.546Z,97650.48
2019-04-26T02:40:59.222Z,97648.09
2019-04-26T02:43:35.232Z,97649.72
2019-04-26T02:46:13.392Z,97648.28
2019-04-26T02:48:46.682Z,97652.73
2019-04-26T02:51:18.304Z,97652.17
2019-04-26T02:53:55.924Z,97653.52
2019-04-26T02:56:39.361Z,97654.51
2019-04-26T02:59:12.893Z,97659.33
2019-04-26T03:01:42.447Z,97656.52
2019-04-26T03:04:11.496Z,97655.71
2019-04-26T03:06:43.061Z,97654.63
2019-04-26T03:09:14.679Z,97647.48
2019-04-26T03:11:46.238Z,97652.27
2019-04-26T03:14:22.578Z,97653.61
2019-04-26T03:16:58.455Z,97646.19
2019-04-26T03:19:33.690Z,97653.30
2019-04-26T03:22:13.776Z,97660.48
2019-04-26T03:25:05.805Z,97656.63
2019-04-26T03:27:45.941Z,97662.03
2019-04-26T03:30:26.589Z,97660.92
2019-04-26T03:33:13.438Z,97662.78
2019-04-26T03:36:01.432Z,97669.84
2019-04-26T03:38:52.681Z,97665.05
2019-04-26T03:41:42.908Z,97670.49
2019-04-26T03:44:21.913Z,97670.54
2019-04-26T03:46:56.169Z,97670.05
2019-04-26T03:49:49.997Z,97667.43
2019-04-26T03:52:24.238Z,97670.31
2019-04-26T03:54:55.872Z,97674.62
2019-04-26T03:57:52.247Z,97675.30
2019-04-26T04:00:41.325Z,97677.27
2019-04-26T04:03:21.096Z,97687.41
2019-04-26T04:05:54.278Z,97689.49
2019-04-26T04:08:25.858Z,97688.48
2019-04-26T04:10:57.883Z,97683.92
2019-04-26T04:13:59.626Z,97686.98
2019-04-26T04:16:46.876Z,97692.17
2019-04-26T04:19:34.989Z,97689.45
2019-04-26T04:22:09.053Z,97687.80
2019-04-26T04:24:45.416Z,97688.01
2019-04-26T04:27:31.868Z,97692.02
2019-04-26T04:30:18.620Z,97695.67
2019-04-26T04:32:53.259Z,97700.35
2019-04-26T04:35:24.758Z,97701.73
2019-04-26T04:38:09.453Z,97707.39
2019-04-26T04:40:40.863Z,97706.13
2019-04-26T04:43:32.446Z,97705.86
2019-04-26T04:46:05.782Z,97700.80
2019-04-26T04:49:06.064Z,97705.77
2019-04-26T04:51:52.419Z,97703.20
2019-04-26T04:54:43.252Z,97701.33
2019-04-26T04:57:30.475Z,97704.30
2019-04-26T05:00:06.331Z,97708.96
2019-04-26T05:03:04.862Z,97713.45
2019-04-26T05:05:51.083Z,97711.48
2019-04-26T05:08:57.473Z,97706.44
2019-04-26T05:11:35.080Z,97711.45
2019-04-26T05:14:09.575Z,97712.20
2019-04-26T05:17:08.391Z,97712.99
2019-04-26T05:19:46.830Z,97718.09
2019-04-26T05:22:24.601Z,97725.14
2019-04-26T05:25:07.142Z,97721.95
2019-04-26T05:27:55.229Z,97713.31
2019-04-26T05:30:37.232Z,97711.72
2019-04-26T05:33:11.612Z,97713.69
2019-04-26T05:36:02.908Z,97713.51
2019-04-26T05:38:55.582Z,97715.31
2019-04-26T05:41:51.603Z,97712.00
2019-04-26T05:44:42.873Z,97711.98
2019-04-26T05:47:28.214Z,97712.99
2019-04-26T05:50:22.386Z,97709.42
2019-04-26T05:53:10.904Z,97705.27
2019-04-26T05:55:46.987Z,97703.41
2019-04-26T05:58:45.477Z,97704.22
2019-04-26T06:01:47.098Z,97699.53
2019-04-26T06:04:35.501Z,97702.44
2019-04-26T06:07:11.316Z,97696.70
2019-04-26T06:09:53.118Z,97691.72
2019-04-26T06:12:32.750Z,97684.31
2019-04-26T06:15:20.403Z,97692.65
2019-04-26T06:17:57.278Z,97689.25
2019-04-26T06:20:38.244Z,97691.72
2019-04-26T06:23:32.742Z,97698.41
2019-04-26T06:26:27.890Z,97688.66
2019-04-26T06:29:17.428Z,97693.66
2019-04-26T06:31:49.013Z,97687.23
2019-04-26T06:34:29.281Z,97671.36
2019-04-26T06:37:17.439Z,97672.05
2019-04-26T06:39:51.786Z,97665.78
2019-04-26T06:42:35.564Z,97664.05
2019-04-26T06:45:30.842Z,97658.25
2019-04-26T06:48:19.014Z,97651.62
2019-04-26T06:51:06.867Z,97649.70
2019-04-26T06:54:00.664Z,97653.13
2019-04-26T06:57:10.594Z,97643.78
2019-04-26T06:59:54.396Z,97643.60
2019-04-26T07:02:38.313Z,97647.14
2019-04-26T07:05:15.337Z,97644.78
2019-04-26T07:07:54.876Z,97641.39
2019-04-26T07:10:40.989Z,97632.78
2019-04-26T07:13:39.145Z,97630.95
2019-04-26T07:16:22.863Z,97619.05
2019-04-26T07:19:13.335Z,97622.61
2019-04-26T07:22:19.737Z,97621.03
2019-04-26T07:24:59.989Z,97617.30
2019-04-26T07:27:47.105Z,97618.50
2019-04-26T07:30:24.641Z,97610.09
2019-04-26T07:33:14.462Z,97612.26
2019-04-26T07:35:49.004Z,97602.31
2019-04-26T07:39:09.054Z,97604.09
2019-04-26T07:41:40.350Z,97595.67
2019-04-26T07:44:22.083Z,97604.47
2019-04-26T07:47:15.438Z,97602.50
2019-04-26T07:50:05.131Z,97596.60
2019-04-26T07:52:48.510Z,97587.00
2019-04-26T07:55:31.887Z,97587.94
2019-04-26T07:58:36.906Z,97584.15
2019-04-26T08:01:32.553Z,97579.56
2019-04-26T08:04:05.829Z,97586.52
2019-04-26T08:06:44.801Z,97585.77
2019-04-26T08:09:26.518Z,97582.14
2019-04-26T08:11:55.170Z,97581.20
2019-04-26T08:14:40.420Z,97580.47
2019-04-26T08:17:26.293Z,97573.70
2019-04-26T08:20:20.488Z,97568.53
2019-04-26T08:22:52.259Z,97573.89
2019-04-26T08:25:24.327Z,97573.96
2019-04-26T08:27:55.931Z,97566.84
2019-04-26T08:30:26.784Z,97558.72
2019-04-26T08:33:02.218Z,97562.98
2019-04-26T08:35:32.163Z,97559.35
2019-04-26T08:38:16.038Z,97560.09
2019-04-26T08:43:44.645Z,97547.91
2019-04-26T08:46:49.627Z,97546.14
2019-04-26T08:49:25.098Z,97543.34
2019-04-26T08:55:04.987Z,97536.00
2019-04-26T08:57:41.388Z,97529.31
2019-04-26T09:00:17.880Z,97527.34
2019-04-26T09:03:10.957Z,97521.79
2019-04-26T09:05:45.677Z,97515.39
2019-04-26T09:08:28.412Z,97506.77
2019-04-26T09:11:02.039Z,97507.23
2019-04-26T09:13:36.103Z,97492.69
2019-04-26T09:16:15.791Z,97499.11
2019-04-26T09:18:52.482Z,97489.98
2019-04-26T09:21:19.451Z,97488.95
2019-04-26T09:24:02.500Z,97485.82
2019-04-26T09:26:42.508Z,97476.16
2019-04-26T09:29:30.617Z,97472.17
2019-04-26T09:32:09.638Z,97469.08
2019-04-26T09:34:43.135Z,97467.14
2019-04-26T09:37:18.996Z,97464.41
2019-04-26T09:39:50.386Z,97459.47
2019-04-26T09:42:45.833Z,97456.78
2019-04-26T09:45:39.272Z,97451.67
2019-04-26T09:51:16.841Z,97440.34
2019-04-26T09:53:53.304Z,97441.16
2019-04-26T09:56:24.082Z,97427.71
2019-04-26T10:02:12.052Z,97421.80
2019-04-26T10:04:52.822Z,97412.49
2019-04-26T10:07:26.237Z,97401.36
2019-04-26T10:10:00.913Z,97393.45
2019-04-26T10:12:32.192Z,97399.28
2019-04-26T10:15:10.776Z,97387.13
2019-04-26T10:17:50.201Z,97388.97
2019-04-26T10:20:35.399Z,97382.02
2019-04-26T10:32:02.667Z,97365.13
2019-04-26T10:34:47.494Z,97362.91
2019-04-26T10:37:38.746Z,97360.23
2019-04-26T10:39:56.621Z,97358.36
2019-04-26T10:42:25.267Z,97356.72
2019-04-26T10:44:53.929Z,97353.57
2019-04-26T10:47:23.466Z,97359.86
2019-04-26T10:49:57.868Z,97347.14
2019-04-26T10:52:53.407Z,97344.73
2019-04-26T10:55:38.942Z,97337.98
2019-04-26T10:58:12.092Z,97329.73
2019-04-26T11:00:54.133Z,97329.30
2019-04-26T11:03:34.993Z,97327.02
2019-04-26T11:06:05.022Z,97323.33
2019-04-26T11:08:41.343Z,97323.02
2019-04-26T11:11:09.855Z,97321.34
2019-04-26T11:13:38.615Z,97314.84
2019-04-26T11:16:08.945Z,97307.80
2019-04-26T11:18:40.492Z,97307.32
2019-04-26T11:21:09.181Z,97301.73
2019-04-26T11:23:41.194Z,97301.47
2019-04-26T11:29:31.451Z,97295.39
2019-04-26T11:35:34.844Z,97283.38
2019-04-26T11:41:40.333Z,97280.14
2019-04-26T11:50:17.770Z,97269.27
2019-04-26T12:02:03.208Z,97246.49
2019-04-26T12:04:36.411Z,97240.33
2019-04-26T12:07:21.622Z,97235.25
2019-04-26T12:13:15.324Z,97228.84
2019-04-26T12:18:51.166Z,97228.77
2019-04-26T12:21:34.156Z,97229.13
2019-04-26T12:24:03.594Z,97221.39
2019-04-26T12:26:42.353Z,97221.30
2019-04-26T12:29:05.865Z,97217.53
2019-04-26T12:31:36.675Z,97216.52
2019-04-26T12:34:07.283Z,97212.86
2019-04-26T12:36:36.007Z,97209.22
2019-04-26T12:39:10.083Z,97201.69
2019-04-26T12:41:45.019Z,97202.63
2019-04-26T12:44:25.930Z,97195.45
2019-04-26T12:47:05.213Z,97197.55
2019-04-26T12:49:42.942Z,97195.53
2019-04-26T12:52:13.290Z,97190.57
2019-04-26T12:54:44.462Z,97184.44
2019-04-26T12:57:16.096Z,97182.58
2019-04-26T12:59:44.652Z,97179.25
2019-04-26T13:02:16.732Z,97171.17
2019-04-26T13:05:05.484Z,97167.56
2019-04-26T13:07:34.246Z,97170.81
2019-04-26T13:10:21.734Z,97161.47
2019-04-26T13:12:55.266Z,97160.92
2019-04-26T13:16:02.688Z,97161.06
2019-04-26T13:18:34.238Z,97159.52
2019-04-26T13:21:05.913Z,97153.81
2019-04-26T13:23:37.756Z,97160.23
2019-04-26T13:26:08.337Z,97153.67
2019-04-26T13:28:39.123Z,97153.58
2019-04-26T13:31:07.544Z,97151.07
2019-04-26T13:33:36.239Z,97150.11
2019-04-26T13:36:05.345Z,97143.73
2019-04-26T13:38:35.207Z,97142.22
2019-04-26T13:41:12.217Z,97139.03
2019-04-26T13:43:49.179Z,97135.83
2019-04-26T13:46:23.334Z,97137.19
2019-04-26T13:49:05.892Z,97136.20
2019-04-26T13:51:43.347Z,97135.52
2019-04-26T13:54:16.663Z,97138.05
2019-04-26T13:56:45.925Z,97134.33
2019-04-26T13:59:17.504Z,97131.66
2019-04-26T14:01:46.459Z,97125.95
2019-04-26T14:04:31.456Z,97125.91
2019-04-26T14:07:00.394Z,97125.50
2019-04-26T14:09:29.118Z,97115.64
2019-04-26T14:12:17.828Z,97115.15
2019-04-26T14:14:38.997Z,97118.94
2019-04-26T14:17:08.434Z,97119.30
2019-04-26T14:19:37.204Z,97124.59
2019-04-26T14:22:09.435Z,97123.66
2019-04-26T14:24:39.782Z,97120.95
2019-04-26T14:27:23.693Z,97123.45
2019-04-26T14:29:54.928Z,97122.47
2019-04-26T14:32:24.321Z,97120.63
2019-04-26T14:34:53.453Z,97115.05
2019-04-26T14:37:23.850Z,97111.27
2019-04-26T14:39:59.217Z,97113.23
2019-04-26T14:42:42.209Z,97111.47
2019-04-26T14:45:23.247Z,97113.30
2019-04-26T14:47:47.820Z,97111.75
2019-04-26T14:50:16.820Z,97110.11
2019-04-26T14:52:45.554Z,97102.69
2019-04-26T14:55:16.673Z,97100.97
2019-04-26T14:57:51.320Z,97091.80
2019-04-26T15:00:21.172Z,97100.82
2019-04-26T15:02:56.155Z,97102.23
2019-04-26T15:05:30.653Z,97101.69
2019-04-26T15:08:03.878Z,97097.84
2019-04-26T15:10:44.388Z,97100.83
2019-04-26T15:13:17.340Z,97098.42
2019-04-26T15:15:39.003Z,97100.06
2019-04-26T15:18:07.780Z,97100.05
2019-04-26T15:20:36.525Z,97097.63
2019-04-26T15:23:05.195Z,97096.87
2019-04-26T15:25:36.771Z,97095.14
2019-04-26T15:28:11.144Z,97092.50
2019-04-26T15:30:43.410Z,97100.91
2019-04-26T15:33:12.708Z,97099.59
2019-04-26T15:35:46.269Z,97101.93
2019-04-26T15:38:15.146Z,97102.01
2019-04-26T15:41:05.555Z,97096.09
2019-04-26T15:43:46.839Z,97098.98
2019-04-26T15:46:29.509Z,97093.38
2019-04-26T15:49:05.066Z,97096.29
2019-04-26T15:51:35.883Z,97092.44
2019-04-26T15:54:07.800Z,97089.58
2019-04-26T15:56:36.529Z,97093.13
2019-04-26T15:59:05.452Z,97092.88
2019-04-26T16:01:34.122Z,97087.10
2019-04-26T16:04:06.318Z,97089.98
2019-04-26T16:06:33.200Z,97089.91
2019-04-26T16:09:02.384Z,97088.95
2019-04-26T16:11:31.080Z,97087.92
2019-04-26T16:13:59.861Z,97082.47
2019-04-26T16:16:30.221Z,97081.34
2019-04-26T16:18:58.833Z,97085.81
2019-04-26T16:21:27.661Z,97088.97
2019-04-26T16:23:56.572Z,97081.14
2019-04-26T16:26:25.287Z,97080.88
2019-04-26T16:29:04.380Z,97087.98
2019-04-26T16:31:37.465Z,97088.20
2019-04-26T16:34:11.786Z,97091.51
2019-04-26T16:39:13.156Z,97092.72
2019-04-26T16:41:42.204Z,97099.66
2019-04-26T16:44:12.880Z,97096.29
2019-04-26T16:46:43.478Z,97100.20
2019-04-26T16:49:14.101Z,97103.20
2019-04-26T16:51:43.641Z,97109.47
2019-04-26T16:54:21.053Z,97110.03
2019-04-26T16:56:44.582Z,97106.55
2019-04-26T16:59:14.359Z,97104.50
2019-04-26T17:00:30.713Z,97099.88
2019-04-26T17:01:47.329Z,97110.52
2019-04-26T17:04:14.329Z,97116.92
2019-04-26T17:06:46.321Z,97112.48
2019-04-26T17:09:19.607Z,97110.41
2019-04-26T17:11:48.286Z,97121.23
2019-04-26T17:14:17.055Z,97120.30
2019-04-26T17:16:45.857Z,97121.54
2019-04-26T17:19:14.522Z,97122.06
2019-04-26T17:22:01.047Z,97120.14
2019-04-26T17:24:28.799Z,97127.28
2019-04-26T17:27:01.562Z,97127.13
2019-04-26T17:29:31.856Z,97118.91
2019-04-26T17:32:09.206Z,97125.15
2019-04-26T17:34:35.848Z,97118.03
2019-04-26T17:37:11.712Z,97122.25
2019-04-26T17:39:35.046Z,97125.80
2019-04-26T17:42:03.689Z,97126.73
2019-04-26T17:44:34.085Z,97138.47
2019-04-26T17:47:03.065Z,97144.89
2019-04-26T17:49:34.621Z,97143.45
2019-04-26T17:52:02.168Z,97146.73
2019-04-26T17:54:44.191Z,97143.34
2019-04-26T17:57:04.479Z,97148.33
2019-04-26T17:59:34.694Z,97155.25
2019-04-26T18:02:02.098Z,97160.11
2019-04-26T18:04:36.539Z,97165.70
2019-04-26T18:07:05.515Z,97166.97
2019-04-26T18:09:41.398Z,97179.16
2019-04-26T18:12:03.578Z,97179.20
2019-04-26T18:14:32.324Z,97185.59
2019-04-26T18:17:04.398Z,97186.69
2019-04-26T18:19:37.323Z,97193.36
2019-04-26T18:22:14.683Z,97202.33
2019-04-26T18:24:43.301Z,97205.50
2019-04-26T18:27:14.794Z,97210.84
2019-04-26T18:29:43.774Z,97218.69
2019-04-26T18:32:12.988Z,97218.34
2019-04-26T18:34:43.013Z,97222.30
2019-04-26T18:37:13.252Z,97220.67
2019-04-26T18:39:43.099Z,97225.72
2019-04-26T18:42:11.970Z,97230.93
2019-04-26T18:44:47.339Z,97228.08
2019-04-26T18:47:20.942Z,97221.41
2019-04-26T18:49:52.101Z,97226.84
2019-04-26T18:52:23.298Z,97221.31
2019-04-26T18:54:57.675Z,97233.87
2019-04-26T18:57:28.412Z,97231.91
2019-04-26T18:59:56.824Z,97233.87
2019-04-26T19:02:27.144Z,97231.56
2019-04-26T19:04:55.912Z,97234.08
2019-04-26T19:07:32.029Z,97237.84
2019-04-26T19:09:59.564Z,97249.87
2019-04-26T19:12:27.102Z,97249.52
2019-04-26T19:15:07.159Z,97241.21
2019-04-26T19:17:43.428Z,97238.78
2019-04-26T19:20:16.985Z,97235.41
2019-04-26T19:22:54.597Z,97246.12
2019-04-26T19:25:25.370Z,97241.16
2019-04-26T19:27:58.711Z,97239.73
2019-04-26T19:30:26.252Z,97236.95
2019-04-26T19:32:54.985Z,97242.75
2019-04-26T19:35:23.834Z,97241.64
2019-04-26T19:37:52.540Z,97246.68
2019-04-26T19:40:22.891Z,97244.06
2019-04-26T19:42:57.518Z,97248.64
2019-04-26T19:45:47.038Z,97240.21
2019-04-26T19:48:20.653Z,97231.45
2019-04-26T19:50:53.811Z,97240.45
2019-04-26T19:53:26.849Z,97241.00
2019-04-26T19:56:13.319Z,97237.98
2019-04-26T19:58:45.870Z,97243.33
2019-04-26T20:01:16.605Z,97244.41
2019-04-26T20:03:47.336Z,97244.98
2019-04-26T20:06:18.935Z,97248.16
2019-04-26T20:08:47.937Z,97252.69
2019-04-26T20:11:18.667Z,97249.03
2019-04-26T20:13:46.942Z,97252.84
2019-04-26T20:16:16.691Z,97258.30
2019-04-26T20:18:45.381Z,97246.84
2019-04-26T20:21:15.423Z,97244.29
2019-04-26T20:23:47.361Z,97241.95
2019-04-26T20:26:14.675Z,97238.53
2019-04-26T20:28:43.340Z,97245.09
2019-04-26T20:31:29.996Z,97239.00
2019-04-26T20:33:58.716Z,97239.00
2019-04-26T20:36:27.557Z,97237.31
2019-04-26T20:38:56.254Z,97235.73
2019-04-26T20:41:25.034Z,97240.20
2019-04-26T20:44:05.060Z,97241.36
2019-04-26T20:46:25.196Z,97240.66
2019-04-26T20:48:53.853Z,97241.52
2019-04-26T20:51:24.145Z,97246.84
2019-04-26T20:53:53.335Z,97248.48
2019-04-26T20:56:22.482Z,97245.48
2019-04-26T20:58:52.299Z,97246.86
2019-04-26T21:01:22.314Z,97249.24
2019-04-26T21:03:51.800Z,97250.30
2019-04-26T21:06:22.232Z,97255.22
2019-04-26T21:08:52.212Z,97254.48
2019-04-26T21:11:21.909Z,97256.83
2019-04-26T21:13:51.961Z,97257.16
2019-04-26T21:16:22.078Z,97254.85
2019-04-26T21:18:52.415Z,97254.23
2019-04-26T21:21:21.797Z,97258.52
2019-04-26T21:23:52.116Z,97249.64
2019-04-26T21:26:28.084Z,97252.02
2019-04-26T21:29:20.482Z,97232.90
2019-04-26T21:31:49.623Z,97250.41
2019-04-26T21:34:19.996Z,97252.92
2019-04-26T21:36:50.224Z,97254.84
2019-04-26T21:39:23.305Z,97255.53
2019-04-26T21:41:56.301Z,97255.53
2019-04-26T21:44:25.184Z,97260.41
2019-04-26T21:46:58.621Z,97260.78
2019-04-26T21:49:24.473Z,97264.87
2019-04-26T21:51:54.332Z,97260.94
2019-04-26T21:54:24.929Z,97264.03
2019-04-26T21:56:53.778Z,97268.69
2019-04-26T21:59:24.292Z,97268.87
2019-04-26T22:01:58.832Z,97274.60
2019-04-26T22:04:24.494Z,97278.78
2019-04-26T22:06:55.607Z,97272.14
2019-04-26T22:09:33.321Z,97273.48
2019-04-26T22:12:03.601Z,97273.88
2019-04-26T22:14:34.158Z,97268.06
2019-04-26T22:17:05.544Z,97275.29
2019-04-26T22:19:45.258Z,97269.39
2019-04-26T22:22:15.467Z,97265.16
2019-04-26T22:24:45.948Z,97258.72
2019-04-26T22:27:17.465Z,97263.34
2019-04-26T22:29:47.676Z,97260.34
2019-04-26T22:32:19.003Z,97264.69
2019-04-26T22:34:46.423Z,97262.33
2019-04-26T22:37:28.818Z,97262.41
2019-04-26T22:39:45.510Z,97264.41
2019-04-26T22:42:14.711Z,97258.85
2019-04-26T22:44:45.031Z,97255.34
2019-04-26T22:47:18.344Z,97256.39
2019-04-26T22:49:47.043Z,97255.06
2019-04-26T22:52:16.571Z,97253.20
2019-04-26T22:54:46.748Z,97247.37
2019-04-26T22:57:16.445Z,97249.80
2019-04-26T22:59:49.745Z,97249.16
2019-04-26T23:02:22.651Z,97250.00
2019-04-26T23:04:47.863Z,97248.48
2019-04-26T23:07:18.242Z,97252.71
2019-04-26T23:09:51.800Z,97251.80
2019-04-26T23:12:24.801Z,97242.58
2019-04-26T23:14:55.182Z,97241.25
2019-04-26T23:17:27.196Z,97241.77
2019-04-26T23:20:03.796Z,97242.09
2019-04-26T23:22:34.091Z,97235.95
2019-04-26T23:25:03.523Z,97238.72
2019-04-26T23:27:33.350Z,97238.05
2019-04-26T23:30:03.864Z,97233.22
2019-04-26T23:32:33.863Z,97228.37
2019-04-26T23:35:05.956Z,97237.29
2019-04-26T23:37:33.269Z,97221.23
2019-04-26T23:40:03.831Z,97223.50
2019-04-26T23:42:33.100Z,97222.86
2019-04-26T23:45:03.167Z,97225.07
2019-04-26T23:47:37.374Z,97217.84
2019-04-26T23:50:03.615Z,97226.19
2019-04-26T23:52:33.269Z,97216.80
2019-04-26T23:55:05.613Z,97216.12
2019-04-26T23:57:36.037Z,97216.12
